Time;durP1;ratioP1;P1;durP2;ratioP2;P2;SDS_P1;SDS_P2;PMS_P1;PMS_P2;Temp;Humidity;BMP_temperature;BMP_pressure;BME280_temperature;BME280_humidity;BME280_pressure;Samples;Min_cycle;Max_cycle;Signal;HPM_P1;HPM_P2
2022/03/02 00:00:43;;;;;;;18.67;8.97;;;3.50;86.80;;;;;;5034057;28;20120;-79
2022/03/02 00:03:09;;;;;;;19.83;9.47;;;3.60;86.50;;;;;;5051460;28;20352;-79
2022/03/02 00:05:36;;;;;;;17.73;8.50;;;3.60;86.70;;;;;;5050281;28;20029;-80
2022/03/02 00:08:03;;;;;;;18.63;9.10;;;3.60;86.60;;;;;;5034835;28;20064;-78
2022/03/02 00:10:29;;;;;;;16.50;8.33;;;3.60;86.70;;;;;;5037812;28;20546;-79
2022/03/02 00:12:54;;;;;;;20.77;8.60;;;3.50;86.70;;;;;;5045070;28;20108;-79
2022/03/02 00:15:21;;;;;;;17.17;8.50;;;3.50;88.10;;;;;;5045490;28;20017;-79
2022/03/02 00:17:46;;;;;;;15.07;8.57;;;3.50;87.80;;;;;;5034864;28;20036;-79
2022/03/02 00:20:12;;;;;;;15.83;8.20;;;3.50;88.00;;;;;;5033643;28;20026;-79
2022/03/02 00:22:39;;;;;;;19.27;9.10;;;3.40;88.20;;;;;;5033710;28;20078;-79
2022/03/02 00:25:05;;;;;;;18.77;9.27;;;3.40;88.10;;;;;;5034755;28;20018;-78
2022/03/02 00:27:31;;;;;;;19.00;8.83;;;3.40;88.50;;;;;;5037217;28;20089;-77
2022/03/02 00:29:57;;;;;;;19.83;8.80;;;3.40;88.80;;;;;;5057744;28;20255;-78
2022/03/02 00:32:22;;;;;;;20.87;8.60;;;3.40;89.70;;;;;;5041178;28;20036;-77
2022/03/02 00:34:48;;;;;;;14.57;8.70;;;3.40;90.40;;;;;;5032954;28;20160;-77
2022/03/02 00:37:14;;;;;;;17.23;7.87;;;3.40;90.00;;;;;;5050430;28;20029;-76
2022/03/02 00:39:41;;;;;;;21.50;8.37;;;3.40;90.50;;;;;;5050159;28;20049;-76
2022/03/02 00:42:07;;;;;;;15.83;8.43;;;3.40;90.40;;;;;;5034270;28;20025;-78
2022/03/02 00:44:34;;;;;;;16.73;8.50;;;3.40;90.60;;;;;;5032726;28;20502;-77
2022/03/02 00:47:00;;;;;;;18.83;8.50;;;3.40;90.50;;;;;;5049317;28;20034;-77
2022/03/02 00:49:26;;;;;;;14.37;7.37;;;3.40;90.80;;;;;;5037421;28;20025;-77
2022/03/02 00:51:54;;;;;;;15.57;7.60;;;3.30;91.30;;;;;;5047020;28;20076;-77
2022/03/02 00:54:20;;;;;;;17.30;7.87;;;3.30;91.00;;;;;;5034135;28;20041;-79
2022/03/02 00:56:45;;;;;;;14.50;7.43;;;3.30;91.00;;;;;;5032393;28;20482;-78
2022/03/02 00:59:11;;;;;;;14.43;7.40;;;3.30;90.70;;;;;;5034318;28;20028;-78
2022/03/02 01:01:36;;;;;;;16.97;7.30;;;3.20;91.90;;;;;;5049117;28;20364;-79
2022/03/02 01:04:02;;;;;;;14.97;7.23;;;3.20;91.90;;;;;;5032949;28;20030;-79
2022/03/02 01:06:28;;;;;;;14.00;7.60;;;3.10;91.70;;;;;;5049641;28;20022;-77
2022/03/02 01:08:53;;;;;;;13.97;7.13;;;3.00;91.80;;;;;;5049326;28;20025;-77
2022/03/02 01:11:19;;;;;;;14.10;7.53;;;2.90;93.00;;;;;;5033441;28;20025;-79
2022/03/02 01:13:46;;;;;;;14.80;7.23;;;2.80;92.60;;;;;;5032879;28;20490;-79
2022/03/02 01:16:13;;;;;;;16.00;7.83;;;2.70;93.00;;;;;;5033405;28;20014;-80
2022/03/02 01:18:39;;;;;;;14.03;7.67;;;2.70;93.50;;;;;;5034389;28;20025;-80
2022/03/02 01:21:04;;;;;;;18.33;7.47;;;2.70;93.40;;;;;;5033310;28;20488;-79
2022/03/02 01:23:30;;;;;;;13.90;7.57;;;2.60;92.80;;;;;;5033413;28;20026;-79
2022/03/02 01:25:56;;;;;;;17.70;7.53;;;2.50;92.30;;;;;;5033370;28;20021;-78
2022/03/02 01:28:21;;;;;;;17.40;7.33;;;2.60;92.50;;;;;;5033206;28;20054;-78
2022/03/02 01:30:47;;;;;;;16.57;8.17;;;2.70;92.70;;;;;;5033497;28;20022;-78
2022/03/02 01:33:13;;;;;;;15.53;7.17;;;2.70;92.30;;;;;;5032264;28;20029;-77
2022/03/02 01:35:38;;;;;;;18.17;7.83;;;2.70;92.30;;;;;;5048092;28;20024;-76
2022/03/02 01:38:04;;;;;;;19.20;7.97;;;2.70;92.00;;;;;;5036924;28;20036;-77
2022/03/02 01:40:30;;;;;;;17.37;8.13;;;2.70;92.10;;;;;;5048932;28;20044;-77
2022/03/02 01:42:55;;;;;;;14.60;7.70;;;2.70;92.10;;;;;;5035889;28;20485;-76
2022/03/02 01:45:21;;;;;;;13.03;6.83;;;2.60;92.40;;;;;;5033866;28;20036;-77
2022/03/02 01:47:47;;;;;;;16.90;8.17;;;2.60;92.60;;;;;;5031616;28;20029;-77
2022/03/02 01:50:14;;;;;;;14.47;7.23;;;2.60;92.60;;;;;;5043024;28;20018;-84
2022/03/02 01:52:40;;;;;;;14.80;7.20;;;2.60;92.90;;;;;;5049521;28;20060;-79
2022/03/02 01:55:07;;;;;;;15.17;8.13;;;2.70;93.40;;;;;;5033148;28;20029;-80
2022/03/02 01:57:35;;;;;;;15.67;7.23;;;2.70;93.50;;;;;;5033726;28;20029;-81
2022/03/02 02:00:02;;;;;;;14.40;7.57;;;2.70;93.30;;;;;;5055835;28;20549;-80
2022/03/02 02:02:28;;;;;;;16.37;7.80;;;2.70;93.10;;;;;;5034066;28;20032;-81
2022/03/02 02:04:54;;;;;;;14.73;7.30;;;2.70;92.90;;;;;;5035339;28;20029;-81
2022/03/02 02:07:22;;;;;;;14.17;7.63;;;2.60;92.80;;;;;;5033848;28;20038;-81
2022/03/02 02:09:49;;;;;;;18.17;7.53;;;2.60;92.90;;;;;;5033626;28;20032;-81
2022/03/02 02:12:14;;;;;;;15.83;7.90;;;2.60;92.90;;;;;;5034490;28;20103;-81
2022/03/02 02:14:40;;;;;;;14.80;7.70;;;2.60;93.30;;;;;;5050242;28;20024;-80
2022/03/02 02:17:06;;;;;;;14.57;7.73;;;2.60;93.80;;;;;;5045002;28;20029;-80
2022/03/02 02:19:31;;;;;;;16.30;7.83;;;2.70;93.70;;;;;;5045549;28;20103;-79
2022/03/02 02:21:57;;;;;;;13.97;8.00;;;2.70;93.80;;;;;;5034703;28;20418;-81
2022/03/02 02:24:24;;;;;;;13.93;7.20;;;2.60;93.60;;;;;;5032646;28;20021;-79
2022/03/02 02:26:49;;;;;;;11.37;6.67;;;2.60;93.70;;;;;;5047911;28;20060;-82
2022/03/02 02:29:16;;;;;;;15.13;7.20;;;2.60;94.00;;;;;;5033707;28;20014;-80
2022/03/02 02:31:44;;;;;;;15.70;7.60;;;2.60;94.20;;;;;;5048984;28;20025;-81
2022/03/02 02:34:10;;;;;;;14.47;7.37;;;2.50;94.10;;;;;;5054688;28;20029;-83
2022/03/02 02:36:38;;;;;;;14.23;7.23;;;2.50;94.30;;;;;;5053838;28;20031;-83
2022/03/02 02:39:04;;;;;;;14.27;6.90;;;2.40;94.50;;;;;;5052684;28;20074;-82
2022/03/02 02:41:29;;;;;;;14.43;7.40;;;2.40;95.00;;;;;;5053129;28;20115;-82
2022/03/02 02:43:55;;;;;;;16.77;8.23;;;2.40;94.80;;;;;;5052072;28;20073;-82
2022/03/02 02:46:21;;;;;;;14.00;6.93;;;2.30;94.80;;;;;;5052745;28;20021;-82
2022/03/02 02:48:46;;;;;;;13.13;6.67;;;2.30;94.90;;;;;;5053873;28;20118;-82
2022/03/02 02:51:12;;;;;;;17.40;7.77;;;2.30;95.10;;;;;;5056843;28;20025;-83
2022/03/02 02:53:37;;;;;;;14.33;7.27;;;2.20;95.50;;;;;;5056976;28;20150;-81
2022/03/02 02:56:03;;;;;;;17.23;7.27;;;2.00;95.60;;;;;;5056038;28;20025;-83
2022/03/02 02:58:29;;;;;;;17.17;8.20;;;1.90;96.10;;;;;;5056436;28;20036;-82
2022/03/02 03:00:55;;;;;;;15.63;7.23;;;1.90;96.10;;;;;;5056060;28;20115;-81
2022/03/02 03:03:20;;;;;;;12.97;7.07;;;2.00;96.00;;;;;;5056496;28;20035;-81
2022/03/02 03:05:46;;;;;;;14.67;7.27;;;1.90;96.00;;;;;;5056275;28;20112;-82
2022/03/02 03:08:13;;;;;;;14.43;7.07;;;1.70;96.20;;;;;;5056595;28;20399;-81
2022/03/02 03:10:40;;;;;;;15.20;7.27;;;1.70;96.80;;;;;;5057479;28;20052;-81
2022/03/02 03:13:07;;;;;;;15.33;7.80;;;1.70;97.10;;;;;;5055616;28;20036;-83
2022/03/02 03:15:34;;;;;;;15.60;7.70;;;1.60;97.20;;;;;;5055996;28;20060;-83
2022/03/02 03:18:00;;;;;;;13.07;7.60;;;1.60;97.30;;;;;;5055160;28;20033;-83
2022/03/02 03:20:27;;;;;;;14.83;7.67;;;1.50;97.60;;;;;;5056006;28;20032;-82
2022/03/02 03:22:54;;;;;;;14.80;7.57;;;1.40;98.10;;;;;;5055691;28;20065;-82
2022/03/02 03:25:21;;;;;;;14.53;7.33;;;1.30;98.30;;;;;;5056590;28;20035;-82
2022/03/02 03:27:48;;;;;;;13.67;7.37;;;1.20;99.00;;;;;;5054948;28;20110;-82
2022/03/02 03:30:16;;;;;;;16.30;7.57;;;1.30;98.40;;;;;;5056808;28;20025;-82
2022/03/02 03:32:42;;;;;;;13.83;6.97;;;1.30;98.20;;;;;;5055798;28;20025;-82
2022/03/02 03:35:09;;;;;;;15.37;7.50;;;1.10;98.40;;;;;;5055792;28;20029;-83
2022/03/02 03:37:35;;;;;;;15.27;7.03;;;1.10;98.60;;;;;;5055590;28;20040;-83
2022/03/02 03:40:01;;;;;;;16.03;7.43;;;1.20;98.40;;;;;;5055421;28;20028;-83
2022/03/02 03:42:27;;;;;;;14.63;7.13;;;1.20;98.30;;;;;;5056069;28;20397;-82
2022/03/02 03:44:53;;;;;;;14.83;7.30;;;1.30;98.70;;;;;;5055770;28;20063;-82
2022/03/02 03:47:19;;;;;;;16.53;8.03;;;1.20;98.60;;;;;;5055581;28;20039;-82
2022/03/02 03:49:45;;;;;;;14.80;7.47;;;1.20;98.70;;;;;;5055755;28;20021;-82
2022/03/02 03:52:11;;;;;;;15.30;7.80;;;1.10;98.80;;;;;;5056183;28;20155;-82
2022/03/02 03:54:37;;;;;;;12.73;6.77;;;1.10;98.80;;;;;;5055445;28;20031;-82
2022/03/02 03:57:04;;;;;;;12.03;6.50;;;1.00;99.00;;;;;;5054630;28;20041;-82
2022/03/02 03:59:29;;;;;;;13.90;6.90;;;1.00;99.40;;;;;;5055778;28;20029;-82
2022/03/02 04:01:55;;;;;;;15.13;7.27;;;1.00;99.20;;;;;;5055219;28;20112;-82
2022/03/02 04:04:20;;;;;;;15.63;7.40;;;1.00;99.00;;;;;;5056186;28;20025;-82
2022/03/02 04:06:46;;;;;;;15.40;7.30;;;0.90;99.30;;;;;;5054768;28;20485;-82
2022/03/02 04:09:12;;;;;;;15.50;7.47;;;0.90;99.20;;;;;;5054827;28;20029;-82
2022/03/02 04:11:38;;;;;;;14.57;7.13;;;0.80;99.40;;;;;;5055160;28;20496;-82
2022/03/02 04:14:04;;;;;;;13.60;6.87;;;0.80;99.70;;;;;;5054301;28;20384;-82
2022/03/02 04:16:29;;;;;;;13.20;6.73;;;0.80;99.70;;;;;;5055772;28;20033;-82
2022/03/02 04:18:55;;;;;;;15.00;7.17;;;0.80;99.90;;;;;;5054677;28;20474;-82
2022/03/02 04:21:21;;;;;;;17.83;6.93;;;0.80;99.70;;;;;;5054573;28;20021;-82
2022/03/02 04:23:47;;;;;;;12.93;6.53;;;0.80;99.70;;;;;;5054806;28;20052;-81
2022/03/02 04:26:13;;;;;;;13.93;7.33;;;0.80;99.80;;;;;;5055610;28;20530;-81
2022/03/02 04:28:38;;;;;;;15.00;7.37;;;0.80;99.90;;;;;;5054851;28;20143;-82
2022/03/02 04:31:04;;;;;;;15.63;7.50;;;0.70;99.80;;;;;;5056106;28;20025;-82
2022/03/02 04:33:30;;;;;;;14.53;7.53;;;0.70;99.70;;;;;;5056070;28;20025;-82
2022/03/02 04:35:56;;;;;;;20.77;7.63;;;0.70;99.60;;;;;;5053688;28;20029;-82
2022/03/02 04:38:22;;;;;;;13.20;7.80;;;0.70;99.70;;;;;;5055707;28;20025;-82
2022/03/02 04:40:48;;;;;;;14.97;7.17;;;0.70;99.70;;;;;;5054867;28;20035;-81
2022/03/02 04:43:14;;;;;;;14.83;6.87;;;0.60;99.70;;;;;;5054612;28;20029;-82
2022/03/02 04:45:39;;;;;;;17.00;7.43;;;0.60;99.90;;;;;;5055335;28;20083;-82
2022/03/02 04:48:06;;;;;;;17.70;7.60;;;0.70;99.90;;;;;;5053448;28;20039;-82
2022/03/02 04:50:31;;;;;;;15.57;7.70;;;0.80;99.50;;;;;;5055308;28;20112;-82
2022/03/02 04:52:57;;;;;;;13.10;6.87;;;0.70;99.70;;;;;;5070431;28;20056;-82
2022/03/02 04:55:23;;;;;;;13.33;7.00;;;0.70;99.80;;;;;;5054014;28;20044;-82
2022/03/02 04:57:52;;;;;;;16.50;6.97;;;0.80;99.60;;;;;;5054584;28;20154;-83
2022/03/02 05:00:25;;;;;;;13.47;7.57;;;0.80;99.70;;;;;;5054516;28;20036;-85
2022/03/02 05:02:51;;;;;;;12.83;7.00;;;0.70;99.60;;;;;;5055272;28;20029;-80
2022/03/02 05:05:19;;;;;;;14.67;7.20;;;0.70;99.40;;;;;;5054159;28;20162;-80
2022/03/02 05:07:45;;;;;;;16.13;7.70;;;0.80;99.50;;;;;;5054006;28;20059;-81
2022/03/02 05:10:13;;;;;;;13.43;7.10;;;0.70;99.60;;;;;;5053729;28;20104;-80
2022/03/02 05:12:39;;;;;;;12.73;6.57;;;0.70;99.80;;;;;;5070126;28;20033;-81
2022/03/02 05:15:07;;;;;;;15.03;7.23;;;0.60;99.60;;;;;;5054626;28;20102;-80
2022/03/02 05:17:34;;;;;;;17.10;7.53;;;0.50;99.80;;;;;;5054060;28;20040;-80
2022/03/02 05:19:59;;;;;;;15.30;7.43;;;0.50;99.90;;;;;;5053418;28;20048;-80
2022/03/02 05:22:25;;;;;;;15.87;7.23;;;0.50;99.90;;;;;;5053525;28;20028;-81
2022/03/02 05:24:51;;;;;;;17.43;6.83;;;0.60;99.90;;;;;;5053761;28;20071;-79
2022/03/02 05:27:16;;;;;;;16.17;7.53;;;0.50;99.90;;;;;;5054193;28;20156;-81
2022/03/02 05:29:42;;;;;;;18.77;7.87;;;0.50;99.90;;;;;;5053671;28;20033;-81
2022/03/02 05:32:08;;;;;;;12.73;6.77;;;0.50;99.90;;;;;;5052721;28;20098;-79
2022/03/02 05:34:34;;;;;;;14.40;7.10;;;0.50;99.90;;;;;;5053112;28;20504;-79
2022/03/02 05:37:00;;;;;;;14.13;7.40;;;0.60;99.90;;;;;;5053478;28;20043;-78
2022/03/02 05:39:26;;;;;;;14.23;7.40;;;0.60;99.90;;;;;;5053187;28;20025;-78
2022/03/02 05:41:52;;;;;;;15.80;7.37;;;0.60;99.90;;;;;;5052908;28;20124;-79
2022/03/02 05:44:18;;;;;;;18.10;8.23;;;0.60;99.90;;;;;;5053188;28;20025;-82
2022/03/02 05:46:44;;;;;;;16.87;8.17;;;0.50;99.90;;;;;;5053446;28;20025;-83
2022/03/02 05:49:12;;;;;;;16.47;8.23;;;0.30;99.90;;;;;;5053877;28;20047;-80
2022/03/02 05:51:38;;;;;;;15.80;8.10;;;0.20;99.90;;;;;;5053463;28;20029;-80
2022/03/02 05:54:05;;;;;;;17.27;7.87;;;0.40;99.90;;;;;;5054121;28;20032;-83
2022/03/02 05:56:32;;;;;;;17.20;7.33;;;0.50;99.90;;;;;;5054750;28;20040;-83
2022/03/02 05:58:58;;;;;;;15.53;7.80;;;0.60;99.90;;;;;;5053915;28;20037;-82
2022/03/02 06:01:23;;;;;;;17.73;8.13;;;0.60;99.90;;;;;;5053432;28;20526;-83
2022/03/02 06:03:49;;;;;;;18.13;8.13;;;0.60;99.90;;;;;;5054077;28;20043;-83
2022/03/02 06:06:16;;;;;;;15.63;7.17;;;0.60;99.90;;;;;;5052229;28;20227;-83
2022/03/02 06:08:42;;;;;;;16.73;7.67;;;0.60;99.90;;;;;;5052901;28;20041;-83
2022/03/02 06:11:08;;;;;;;19.20;8.30;;;0.60;99.90;;;;;;5051641;28;20531;-83
2022/03/02 06:13:34;;;;;;;21.60;8.40;;;0.60;99.90;;;;;;5052835;28;20056;-83
2022/03/02 06:16:01;;;;;;;21.73;8.43;;;0.50;99.90;;;;;;5052210;28;20028;-82
2022/03/02 06:18:27;;;;;;;18.57;8.27;;;0.40;99.90;;;;;;5052849;28;20032;-83
2022/03/02 06:21:00;;;;;;;16.83;8.07;;;0.50;99.90;;;;;;5052774;28;20533;-83
2022/03/02 06:23:25;;;;;;;15.50;7.93;;;0.50;99.90;;;;;;5052802;28;20029;-80
2022/03/02 06:25:51;;;;;;;21.07;8.87;;;0.50;99.90;;;;;;5052540;28;20465;-80
2022/03/02 06:28:17;;;;;;;15.83;8.37;;;0.50;99.90;;;;;;5052811;28;20057;-80
2022/03/02 06:30:43;;;;;;;19.57;8.23;;;0.50;99.90;;;;;;5052623;28;20052;-80
2022/03/02 06:33:10;;;;;;;17.00;8.20;;;0.50;99.90;;;;;;5052229;28;20036;-80
2022/03/02 06:35:36;;;;;;;20.20;8.50;;;0.50;99.90;;;;;;5052599;28;20025;-79
2022/03/02 06:38:02;;;;;;;20.27;8.27;;;0.50;99.90;;;;;;5051757;28;20036;-80
2022/03/02 06:40:27;;;;;;;16.80;8.17;;;0.50;99.90;;;;;;5052206;28;20477;-80
2022/03/02 06:43:24;;;;;;;13.77;7.40;;;0.50;99.90;;;;;;5052509;28;20036;-80
2022/03/02 06:46:39;;;;;;;17.03;8.43;;;0.40;99.90;;;;;;5051121;28;20033;-79
2022/03/02 06:49:20;;;;;;;15.57;7.97;;;0.40;99.90;;;;;;5051566;28;20067;-80
2022/03/02 06:51:47;;;;;;;14.30;7.10;;;0.50;99.90;;;;;;5053401;28;20398;-79
2022/03/02 06:54:18;;;;;;;18.67;8.33;;;0.50;99.90;;;;;;5052233;28;20053;-80
2022/03/02 06:56:50;;;;;;;15.57;7.23;;;0.50;99.90;;;;;;5052856;28;20040;-81
2022/03/02 06:59:28;;;;;;;17.63;7.53;;;0.50;99.90;;;;;;5052601;28;20033;-81
2022/03/02 07:02:00;;;;;;;15.83;7.73;;;0.50;99.90;;;;;;5053761;28;20022;-81
2022/03/02 07:04:27;;;;;;;14.73;7.23;;;0.70;99.90;;;;;;5052586;28;20116;-81
2022/03/02 07:06:53;;;;;;;19.20;8.03;;;0.80;99.90;;;;;;5053108;28;20025;-81
2022/03/02 07:09:23;;;;;;;17.83;8.23;;;0.90;99.90;;;;;;5051729;28;20049;-81
2022/03/02 07:11:48;;;;;;;16.07;8.03;;;1.00;99.90;;;;;;5053359;28;20036;-82
2022/03/02 07:14:15;;;;;;;15.17;8.43;;;1.00;99.90;;;;;;5053276;28;20047;-80
2022/03/02 07:16:43;;;;;;;15.90;8.60;;;1.00;99.90;;;;;;5052526;28;20036;-79
2022/03/02 07:19:09;;;;;;;16.63;8.97;;;1.00;99.90;;;;;;5052406;28;20060;-80
2022/03/02 07:21:39;;;;;;;13.57;7.40;;;1.00;99.90;;;;;;5053125;28;20017;-85
2022/03/02 07:24:19;;;;;;;16.97;7.93;;;1.10;99.90;;;;;;5052912;28;20100;-81
2022/03/02 07:26:51;;;;;;;17.57;7.90;;;1.10;99.90;;;;;;5052233;28;20147;-80
2022/03/02 07:29:19;;;;;;;18.05;8.00;;;1.00;99.90;;;;;;5051888;28;20065;-81
2022/03/02 07:31:45;;;;;;;15.70;7.67;;;1.10;99.90;;;;;;5051950;28;20029;-80
2022/03/02 07:34:13;;;;;;;15.03;7.50;;;1.10;99.90;;;;;;5051859;28;20082;-81
2022/03/02 07:36:40;;;;;;;16.13;8.80;;;1.20;99.90;;;;;;5056531;28;20029;-81
2022/03/02 07:39:08;;;;;;;15.43;7.53;;;1.20;99.90;;;;;;5056324;28;20054;-81
2022/03/02 07:41:34;;;;;;;17.13;8.03;;;1.20;99.90;;;;;;5056897;28;20052;-80
2022/03/02 07:43:59;;;;;;;17.23;8.33;;;1.20;99.90;;;;;;5055811;28;20026;-80
2022/03/02 07:46:28;;;;;;;15.20;7.70;;;1.20;99.90;;;;;;5055430;28;20036;-81
2022/03/02 07:48:54;;;;;;;17.20;8.40;;;1.30;99.90;;;;;;5055495;28;20488;-81
2022/03/02 07:51:21;;;;;;;17.83;7.97;;;1.30;99.90;;;;;;5054707;28;20024;-80
2022/03/02 07:53:49;;;;;;;19.77;7.83;;;1.40;99.90;;;;;;5054728;28;20028;-81
2022/03/02 07:56:16;;;;;;;15.20;7.77;;;1.40;99.90;;;;;;5055453;28;20021;-81
2022/03/02 07:58:42;;;;;;;14.33;7.93;;;1.50;99.90;;;;;;5055173;28;20036;-80
2022/03/02 08:01:12;;;;;;;14.83;7.50;;;1.70;99.70;;;;;;5054572;28;20025;-81
2022/03/02 08:03:39;;;;;;;19.40;8.23;;;1.70;99.50;;;;;;5041301;28;20078;-81
2022/03/02 08:06:06;;;;;;;21.40;8.43;;;1.90;99.00;;;;;;5035159;28;20036;-81
2022/03/02 08:08:34;;;;;;;17.20;7.63;;;1.90;98.70;;;;;;5052214;28;20056;-81
2022/03/02 08:11:00;;;;;;;20.17;8.50;;;2.00;98.90;;;;;;5055345;28;20025;-80
2022/03/02 08:13:29;;;;;;;19.83;8.60;;;2.10;98.90;;;;;;5034943;28;20485;-80
2022/03/02 08:15:56;;;;;;;18.20;8.97;;;2.20;98.90;;;;;;5036211;28;20041;-80
2022/03/02 08:18:21;;;;;;;16.13;8.77;;;2.30;99.00;;;;;;5035772;28;20029;-86
2022/03/02 08:20:50;;;;;;;18.83;9.10;;;2.30;99.00;;;;;;5034987;28;20022;-79
2022/03/02 08:23:20;;;;;;;16.70;9.03;;;2.30;99.00;;;;;;5052379;28;20042;-80
2022/03/02 08:25:52;;;;;;;15.63;8.50;;;2.40;98.30;;;;;;5036136;28;20060;-78
2022/03/02 08:28:20;;;;;;;19.13;9.50;;;2.50;98.40;;;;;;5050117;28;20062;-80
2022/03/02 08:30:49;;;;;;;20.50;8.73;;;2.50;98.40;;;;;;5051197;28;20066;-81
2022/03/02 08:33:29;;;;;;;17.67;8.10;;;2.50;98.10;;;;;;5035415;28;20025;-81
2022/03/02 08:35:57;;;;;;;15.97;8.53;;;2.60;98.40;;;;;;5052309;28;20030;-81
2022/03/02 08:38:24;;;;;;;16.90;9.27;;;2.70;97.90;;;;;;5051461;28;20029;-80
2022/03/02 08:40:50;;;;;;;16.33;8.90;;;2.70;97.10;;;;;;5051844;28;20026;-80
2022/03/02 08:43:16;;;;;;;16.23;8.57;;;2.80;97.10;;;;;;5050507;28;20091;-80
2022/03/02 08:45:47;;;;;;;18.40;8.07;;;2.90;96.50;;;;;;5050774;28;20026;-79
2022/03/02 08:48:16;;;;;;;13.87;7.33;;;2.90;96.40;;;;;;5033832;28;20140;-79
2022/03/02 08:50:42;;;;;;;18.27;9.30;;;2.90;96.80;;;;;;5050796;28;20026;-79
2022/03/02 08:53:12;;;;;;;17.40;8.63;;;3.10;96.30;;;;;;5050717;28;20473;-80
2022/03/02 08:55:39;;;;;;;16.77;9.17;;;3.10;96.60;;;;;;5050632;28;20032;-82
2022/03/02 08:58:05;;;;;;;14.20;8.27;;;3.20;96.20;;;;;;5050654;28;20064;-79
2022/03/02 09:00:32;;;;;;;14.07;8.50;;;3.30;95.70;;;;;;5036992;28;20071;-81
2022/03/02 09:03:01;;;;;;;21.83;9.33;;;3.30;95.00;;;;;;5054567;28;20025;-81
2022/03/02 09:05:28;;;;;;;17.97;8.40;;;3.40;95.10;;;;;;5053726;28;20036;-81
2022/03/02 09:07:54;;;;;;;13.70;7.93;;;3.50;95.30;;;;;;5054286;28;20036;-82
2022/03/02 09:10:20;;;;;;;13.73;7.70;;;3.50;95.40;;;;;;5051117;28;20119;-81
2022/03/02 09:12:46;;;;;;;16.33;8.67;;;3.50;94.20;;;;;;5050919;28;20056;-81
2022/03/02 09:15:11;;;;;;;17.07;8.27;;;3.50;94.70;;;;;;5043631;28;20025;-80
2022/03/02 09:17:37;;;;;;;17.23;8.60;;;3.60;94.50;;;;;;5034146;28;20041;-80
2022/03/02 09:20:06;;;;;;;18.47;9.03;;;3.60;95.00;;;;;;5040476;28;20017;-81
2022/03/02 09:22:33;;;;;;;14.73;7.90;;;3.70;95.70;;;;;;5033380;28;20049;-81
2022/03/02 09:24:59;;;;;;;14.87;8.37;;;3.70;95.30;;;;;;5033695;28;20025;-82
2022/03/02 09:27:30;;;;;;;18.10;8.57;;;3.70;95.10;;;;;;5047982;28;20056;-80
2022/03/02 09:30:02;;;;;;;18.13;8.40;;;3.80;93.80;;;;;;5034391;28;20029;-80
2022/03/02 09:32:30;;;;;;;;;;;3.90;93.90;;;;;;5050697;28;20030;-78
2022/03/02 09:34:57;;;;;;;16.80;7.77;;;3.90;94.50;;;;;;5034146;28;20304;-78
2022/03/02 10:00:47;;;;;;;16.58;8.65;;;4.40;91.30;;;;;;5305946;23;20077;-80
2022/03/02 10:03:18;;;;;;;14.03;8.27;;;4.50;91.50;;;;;;4973390;28;20573;-81
2022/03/02 10:05:48;;;;;;;19.70;9.15;;;4.50;89.60;;;;;;4973764;28;20033;-83
2022/03/02 10:08:18;;;;;;;18.97;9.17;;;4.60;91.20;;;;;;4976070;28;20070;-82
2022/03/02 10:10:48;;;;;;;17.47;8.87;;;4.80;91.70;;;;;;4974455;28;20034;-85
2022/03/02 10:13:16;;;;;;;15.77;8.57;;;4.80;90.10;;;;;;4973946;28;20061;-83
2022/03/02 10:15:43;;;;;;;17.27;8.27;;;4.80;89.20;;;;;;4973263;28;20026;-83
2022/03/02 10:18:11;;;;;;;21.17;9.53;;;4.90;90.90;;;;;;4973903;28;20031;-81
2022/03/02 10:20:43;;;;;;;16.87;8.30;;;4.90;91.30;;;;;;4968178;28;20027;-76
2022/03/02 10:23:18;;;;;;;;;;;4.90;90.50;;;;;;4971834;28;20031;-86
2022/03/02 10:26:01;;;;;;;16.07;7.73;;;5.00;88.40;;;;;;4960687;28;19906;-83
2022/03/02 10:28:48;;;;;;;18.37;8.70;;;5.00;85.60;;;;;;4972371;28;20057;-76
2022/03/02 10:31:27;;;;;;;17.13;9.07;;;5.10;84.70;;;;;;4973631;28;20042;-77
2022/03/02 10:34:01;;;;;;;19.00;9.17;;;5.20;82.80;;;;;;4971688;28;20162;-77
2022/03/02 10:36:29;;;;;;;19.50;8.70;;;5.20;81.80;;;;;;4972563;28;20041;-76
2022/03/02 10:38:58;;;;;;;20.07;9.50;;;5.20;85.30;;;;;;4958510;28;20182;-77
2022/03/02 10:41:25;;;;;;;22.53;9.10;;;5.30;83.60;;;;;;4957084;28;20086;-77
2022/03/02 10:43:57;;;;;;;17.70;8.47;;;5.40;85.80;;;;;;4973077;28;20077;-77
2022/03/02 10:46:24;;;;;;;18.83;8.32;;;5.50;82.50;;;;;;4962352;28;20028;-77
2022/03/02 10:49:17;;;;;;;18.67;8.80;;;5.50;80.00;;;;;;4967655;28;20069;-77
2022/03/02 10:51:44;;;;;;;18.07;8.70;;;5.50;79.20;;;;;;4967759;28;20085;-76
2022/03/02 10:54:16;;;;;;;21.20;9.17;;;5.50;79.60;;;;;;4956348;28;20081;-77
2022/03/02 10:56:42;;;;;;;;;;;5.50;77.20;;;;;;4972608;28;20034;-76
2022/03/02 10:59:16;;;;;;;15.83;8.83;;;5.50;76.60;;;;;;4971634;28;19906;-77
2022/03/02 11:01:44;;;;;;;15.60;8.50;;;5.40;77.50;;;;;;4956918;28;20058;-76
2022/03/02 11:04:10;;;;;;;15.40;7.90;;;5.40;80.00;;;;;;4972513;28;20491;-77
2022/03/02 11:06:38;;;;;;;17.37;8.77;;;5.50;76.90;;;;;;4972160;28;20411;-76
2022/03/02 11:09:05;;;;;;;14.70;7.83;;;5.60;75.50;;;;;;4956510;28;20040;-76
2022/03/02 11:11:37;;;;;;;15.27;7.73;;;5.70;73.20;;;;;;4960566;28;20362;-77
2022/03/02 11:14:05;;;;;;;14.57;7.53;;;5.80;73.00;;;;;;4977584;28;20031;-77
2022/03/02 11:16:31;;;;;;;19.73;8.77;;;5.90;74.40;;;;;;4976901;28;20031;-78
2022/03/02 11:19:11;;;;;;;15.27;7.67;;;6.00;74.90;;;;;;4976144;28;20027;-79
2022/03/02 11:21:39;;;;;;;16.17;8.97;;;6.10;76.10;;;;;;4969882;28;20497;-77
2022/03/02 11:24:05;;;;;;;16.53;8.40;;;6.20;73.70;;;;;;4975572;28;20078;-77
2022/03/02 11:26:39;;;;;;;16.97;8.40;;;6.30;75.30;;;;;;4965387;28;20038;-77
2022/03/02 11:29:10;;;;;;;14.33;7.63;;;6.40;77.40;;;;;;4973188;28;20062;-77
2022/03/02 11:31:43;;;;;;;18.48;9.10;;;6.50;74.10;;;;;;4961659;28;20060;-78
2022/03/02 11:34:11;;;;;;;16.83;8.33;;;6.60;74.60;;;;;;4967107;28;20028;-76
2022/03/02 11:36:38;;;;;;;15.30;8.10;;;6.60;70.40;;;;;;4955956;29;20042;-77
2022/03/02 11:39:06;;;;;;;15.17;8.13;;;6.60;70.80;;;;;;4973448;28;20093;-77
2022/03/02 11:41:34;;;;;;;17.53;8.10;;;6.70;71.00;;;;;;4961051;28;20019;-77
2022/03/02 11:44:01;;;;;;;16.53;8.40;;;6.80;67.70;;;;;;4968780;28;20054;-77
2022/03/02 11:46:27;;;;;;;18.47;9.30;;;6.90;67.70;;;;;;4968397;28;20034;-77
2022/03/02 11:48:53;;;;;;;16.13;8.53;;;7.00;69.30;;;;;;4960573;28;20032;-77
2022/03/02 11:51:23;;;;;;;15.70;8.70;;;7.10;67.80;;;;;;4975232;28;20054;-77
2022/03/02 11:53:54;;;;;;;18.27;9.20;;;7.20;69.60;;;;;;4975244;28;20031;-77
2022/03/02 11:56:22;;;;;;;14.48;7.82;;;7.30;68.50;;;;;;4965298;28;20463;-77
2022/03/02 11:59:05;;;;;;;17.10;8.47;;;7.20;68.50;;;;;;4970829;28;20387;-78
2022/03/02 12:01:51;;;;;;;16.23;8.23;;;7.30;70.80;;;;;;4959501;28;20051;-79
2022/03/02 12:04:17;;;;;;;18.37;8.43;;;7.40;68.10;;;;;;4976517;28;20026;-77
2022/03/02 12:06:50;;;;;;;16.10;9.13;;;7.50;70.10;;;;;;4975057;28;20368;-76
2022/03/02 12:09:27;;;;;;;15.47;8.57;;;7.50;68.80;;;;;;4958731;28;20483;-76
2022/03/02 12:12:11;;;;;;;17.40;8.87;;;7.40;68.40;;;;;;4973852;28;20034;-76
2022/03/02 12:14:42;;;;;;;17.63;8.87;;;7.40;69.60;;;;;;4976321;28;20027;-82
2022/03/02 12:17:23;;;;;;;16.70;9.10;;;7.50;69.60;;;;;;4959007;28;20093;-78
2022/03/02 12:19:58;;;;;;;20.47;9.40;;;7.40;66.10;;;;;;4968925;28;20031;-77
2022/03/02 12:22:31;;;;;;;17.07;8.80;;;7.30;66.60;;;;;;4966413;28;20399;-76
2022/03/02 12:24:58;;;;;;;17.57;8.83;;;7.20;66.20;;;;;;4972464;28;20245;-77
2022/03/02 12:27:24;;;;;;;17.70;9.10;;;7.20;67.80;;;;;;4973058;28;20070;-78
2022/03/02 12:29:57;;;;;;;18.20;8.17;;;7.20;69.40;;;;;;4973611;28;20121;-76
2022/03/02 12:32:28;;;;;;;17.77;8.43;;;7.20;70.90;;;;;;4974609;28;20043;-77
2022/03/02 12:34:56;;;;;;;14.73;8.20;;;7.10;71.00;;;;;;4960811;28;20029;-78
2022/03/02 12:37:22;;;;;;;16.17;8.63;;;7.20;71.30;;;;;;4971510;28;20173;-78
2022/03/02 12:39:48;;;;;;;14.10;8.70;;;7.20;71.90;;;;;;4960819;28;20027;-78
2022/03/02 12:42:16;;;;;;;16.40;9.00;;;7.10;68.90;;;;;;4965396;28;20078;-76
2022/03/02 12:44:45;;;;;;;19.90;8.60;;;7.10;68.10;;;;;;4968744;28;20023;-76
2022/03/02 12:47:21;;;;;;;15.70;8.40;;;7.10;68.10;;;;;;4958016;28;20071;-77
2022/03/02 12:49:50;;;;;;;15.63;8.30;;;7.10;68.10;;;;;;4969517;28;20035;-77
2022/03/02 12:52:16;;;;;;;19.13;8.77;;;7.10;68.10;;;;;;4973569;28;20484;-77
2022/03/02 12:54:43;;;;;;;19.43;8.80;;;7.00;68.30;;;;;;4974892;28;20037;-77
2022/03/02 12:57:13;;;;;;;16.17;8.73;;;7.00;69.60;;;;;;4959396;28;20032;-77
2022/03/02 12:59:40;;;;;;;16.80;8.10;;;7.00;70.60;;;;;;4968685;28;20026;-76
2022/03/02 13:02:11;;;;;;;19.87;8.47;;;7.00;71.60;;;;;;4962204;28;20145;-76
2022/03/02 13:04:50;;;;;;;19.23;8.53;;;7.00;73.30;;;;;;4961556;28;20027;-77
2022/03/02 13:07:27;;;;;;;15.10;8.00;;;7.00;72.40;;;;;;4970280;28;20038;-76
2022/03/02 13:09:54;;;;;;;22.20;8.80;;;7.10;74.10;;;;;;4960817;28;20482;-77
2022/03/02 13:12:27;;;;;;;16.93;8.30;;;7.20;71.00;;;;;;4963321;28;20465;-75
2022/03/02 13:14:53;;;;;;;16.43;8.13;;;7.20;68.70;;;;;;4969806;28;20118;-78